sensor_id;sensor_type;location;lat;lon;timestamp;temperature;humidity
22738;DHT22;11536;50.860;4.286;2023-02-22T00:00:49;7.00;99.90
22738;DHT22;11536;50.860;4.286;2023-02-22T00:03:20;7.00;99.90
22738;DHT22;11536;50.860;4.286;2023-02-22T00:06:00;7.00;99.90
22738;DHT22;11536;50.860;4.286;2023-02-22T00:08:31;7.00;99.90
22738;DHT22;11536;50.860;4.286;2023-02-22T00:10:58;7.10;99.90
22738;DHT22;11536;50.860;4.286;2023-02-22T00:13:24;7.10;99.90
22738;DHT22;11536;50.860;4.286;2023-02-22T00:15:49;7.10;99.90
22738;DHT22;11536;50.860;4.286;2023-02-22T00:18:17;7.00;99.90
22738;DHT22;11536;50.860;4.286;2023-02-22T00:20:43;7.00;99.90
22738;DHT22;11536;50.860;4.286;2023-02-22T00:23:18;7.00;99.90
22738;DHT22;11536;50.860;4.286;2023-02-22T00:25:45;7.00;99.90
22738;DHT22;11536;50.860;4.286;2023-02-22T00:28:11;7.00;99.90
22738;DHT22;11536;50.860;4.286;2023-02-22T00:30:37;7.00;99.90
22738;DHT22;11536;50.860;4.286;2023-02-22T00:33:02;7.10;99.90
22738;DHT22;11536;50.860;4.286;2023-02-22T00:35:30;7.10;99.90
22738;DHT22;11536;50.860;4.286;2023-02-22T00:37:58;7.10;99.90
22738;DHT22;11536;50.860;4.286;2023-02-22T00:40:26;7.10;99.90
22738;DHT22;11536;50.860;4.286;2023-02-22T00:42:53;7.10;99.90
22738;DHT22;11536;50.860;4.286;2023-02-22T00:45:21;7.10;99.90
22738;DHT22;11536;50.860;4.286;2023-02-22T00:47:47;7.10;99.90
22738;DHT22;11536;50.860;4.286;2023-02-22T00:50:14;7.10;99.90
22738;DHT22;11536;50.860;4.286;2023-02-22T00:52:40;7.00;99.90
22738;DHT22;11536;50.860;4.286;2023-02-22T00:55:09;7.00;99.90
22738;DHT22;11536;50.860;4.286;2023-02-22T00:57:35;7.00;99.90
22738;DHT22;11536;50.860;4.286;2023-02-22T01:00:07;7.00;99.90
22738;DHT22;11536;50.860;4.286;2023-02-22T01:02:41;7.00;99.90
22738;DHT22;11536;50.860;4.286;2023-02-22T01:05:10;7.10;99.90
22738;DHT22;11536;50.860;4.286;2023-02-22T01:07:37;7.00;99.90
22738;DHT22;11536;50.860;4.286;2023-02-22T01:10:04;7.00;99.90
22738;DHT22;11536;50.860;4.286;2023-02-22T01:12:30;7.00;99.90
22738;DHT22;11536;50.860;4.286;2023-02-22T01:14:56;7.00;99.90
22738;DHT22;11536;50.860;4.286;2023-02-22T01:17:23;7.00;99.90
22738;DHT22;11536;50.860;4.286;2023-02-22T01:19:50;7.00;99.90
22738;DHT22;11536;50.860;4.286;2023-02-22T01:22:16;7.00;99.90
22738;DHT22;11536;50.860;4.286;2023-02-22T01:24:41;7.00;99.90
22738;DHT22;11536;50.860;4.286;2023-02-22T01:27:07;7.00;99.90
22738;DHT22;11536;50.860;4.286;2023-02-22T01:29:32;7.00;99.90
22738;DHT22;11536;50.860;4.286;2023-02-22T01:31:58;6.90;99.90
22738;DHT22;11536;50.860;4.286;2023-02-22T01:34:25;6.90;99.90
22738;DHT22;11536;50.860;4.286;2023-02-22T01:36:51;6.80;99.90
22738;DHT22;11536;50.860;4.286;2023-02-22T01:39:17;6.70;99.90
22738;DHT22;11536;50.860;4.286;2023-02-22T01:41:46;6.70;99.90
22738;DHT22;11536;50.860;4.286;2023-02-22T01:44:31;6.70;99.90
22738;DHT22;11536;50.860;4.286;2023-02-22T01:47:00;6.70;99.90
22738;DHT22;11536;50.860;4.286;2023-02-22T01:49:34;6.70;99.90
22738;DHT22;11536;50.860;4.286;2023-02-22T01:52:03;6.70;99.90
22738;DHT22;11536;50.860;4.286;2023-02-22T01:54:38;6.70;99.90
22738;DHT22;11536;50.860;4.286;2023-02-22T01:57:34;6.70;99.90
22738;DHT22;11536;50.860;4.286;2023-02-22T02:00:03;6.70;99.90
22738;DHT22;11536;50.860;4.286;2023-02-22T02:02:41;6.60;99.90
22738;DHT22;11536;50.860;4.286;2023-02-22T02:05:08;6.50;99.90
22738;DHT22;11536;50.860;4.286;2023-02-22T02:07:35;6.50;99.90
22738;DHT22;11536;50.860;4.286;2023-02-22T02:10:08;6.50;99.90
22738;DHT22;11536;50.860;4.286;2023-02-22T02:12:40;6.60;99.90
22738;DHT22;11536;50.860;4.286;2023-02-22T02:15:24;6.60;99.90
22738;DHT22;11536;50.860;4.286;2023-02-22T02:17:51;6.70;99.90
22738;DHT22;11536;50.860;4.286;2023-02-22T02:25:47;6.70;99.90
22738;DHT22;11536;50.860;4.286;2023-02-22T02:37:20;6.70;99.90
22738;DHT22;11536;50.860;4.286;2023-02-22T02:48:11;6.60;99.90
22738;DHT22;11536;50.860;4.286;2023-02-22T02:50:43;6.60;99.90
22738;DHT22;11536;50.860;4.286;2023-02-22T02:53:12;6.60;99.90
22738;DHT22;11536;50.860;4.286;2023-02-22T02:55:41;6.60;99.90
22738;DHT22;11536;50.860;4.286;2023-02-22T02:58:07;6.70;99.90
22738;DHT22;11536;50.860;4.286;2023-02-22T03:00:36;6.70;99.90
22738;DHT22;11536;50.860;4.286;2023-02-22T03:03:16;6.70;99.90
22738;DHT22;11536;50.860;4.286;2023-02-22T03:05:56;6.70;99.90
22738;DHT22;11536;50.860;4.286;2023-02-22T03:08:38;6.70;99.90
22738;DHT22;11536;50.860;4.286;2023-02-22T03:11:06;6.70;99.90
22738;DHT22;11536;50.860;4.286;2023-02-22T03:16:21;6.70;99.90
22738;DHT22;11536;50.860;4.286;2023-02-22T03:18:55;6.70;99.90
22738;DHT22;11536;50.860;4.286;2023-02-22T03:21:49;6.70;99.90
22738;DHT22;11536;50.860;4.286;2023-02-22T03:24:32;6.70;99.90
22738;DHT22;11536;50.860;4.286;2023-02-22T03:27:16;6.70;99.90
22738;DHT22;11536;50.860;4.286;2023-02-22T03:29:48;6.70;99.90
22738;DHT22;11536;50.860;4.286;2023-02-22T03:32:22;6.70;99.90
22738;DHT22;11536;50.860;4.286;2023-02-22T03:34:57;6.70;99.90
22738;DHT22;11536;50.860;4.286;2023-02-22T03:37:28;6.70;99.90
22738;DHT22;11536;50.860;4.286;2023-02-22T03:39:55;6.70;99.90
22738;DHT22;11536;50.860;4.286;2023-02-22T03:42:30;6.70;99.90
22738;DHT22;11536;50.860;4.286;2023-02-22T03:44:59;6.70;99.90
22738;DHT22;11536;50.860;4.286;2023-02-22T03:47:34;6.70;99.90
22738;DHT22;11536;50.860;4.286;2023-02-22T03:50:23;6.70;99.90
22738;DHT22;11536;50.860;4.286;2023-02-22T03:52:51;6.70;99.90
22738;DHT22;11536;50.860;4.286;2023-02-22T03:55:18;6.70;99.90
22738;DHT22;11536;50.860;4.286;2023-02-22T03:57:54;6.70;99.90
22738;DHT22;11536;50.860;4.286;2023-02-22T04:00:24;6.70;99.90
22738;DHT22;11536;50.860;4.286;2023-02-22T04:02:50;6.60;99.90
22738;DHT22;11536;50.860;4.286;2023-02-22T04:05:15;6.60;99.90
22738;DHT22;11536;50.860;4.286;2023-02-22T04:07:41;6.60;99.90
22738;DHT22;11536;50.860;4.286;2023-02-22T04:10:09;6.70;99.90
22738;DHT22;11536;50.860;4.286;2023-02-22T04:12:35;6.70;99.90
22738;DHT22;11536;50.860;4.286;2023-02-22T04:15:03;6.60;99.90
22738;DHT22;11536;50.860;4.286;2023-02-22T04:17:29;6.70;99.90
22738;DHT22;11536;50.860;4.286;2023-02-22T04:19:55;6.60;99.90
22738;DHT22;11536;50.860;4.286;2023-02-22T04:22:20;6.70;99.90
22738;DHT22;11536;50.860;4.286;2023-02-22T04:24:46;6.70;99.90
22738;DHT22;11536;50.860;4.286;2023-02-22T04:27:13;6.70;99.90
22738;DHT22;11536;50.860;4.286;2023-02-22T04:29:39;6.70;99.90
22738;DHT22;11536;50.860;4.286;2023-02-22T04:32:05;6.70;99.90
22738;DHT22;11536;50.860;4.286;2023-02-22T04:34:31;6.70;99.90
22738;DHT22;11536;50.860;4.286;2023-02-22T04:36:56;6.70;99.90
22738;DHT22;11536;50.860;4.286;2023-02-22T04:39:22;6.70;99.90
22738;DHT22;11536;50.860;4.286;2023-02-22T04:41:47;6.70;99.90
22738;DHT22;11536;50.860;4.286;2023-02-22T04:44:13;6.70;99.90
22738;DHT22;11536;50.860;4.286;2023-02-22T04:46:39;6.70;99.90
22738;DHT22;11536;50.860;4.286;2023-02-22T04:49:04;6.70;99.90
22738;DHT22;11536;50.860;4.286;2023-02-22T04:51:30;6.70;99.90
22738;DHT22;11536;50.860;4.286;2023-02-22T04:53:56;6.70;99.90
22738;DHT22;11536;50.860;4.286;2023-02-22T04:56:22;6.70;99.90
22738;DHT22;11536;50.860;4.286;2023-02-22T04:58:48;6.70;99.90
22738;DHT22;11536;50.860;4.286;2023-02-22T05:01:14;6.70;99.90
22738;DHT22;11536;50.860;4.286;2023-02-22T05:03:40;6.80;99.90
22738;DHT22;11536;50.860;4.286;2023-02-22T05:06:06;6.80;99.90
22738;DHT22;11536;50.860;4.286;2023-02-22T05:08:32;6.80;99.90
22738;DHT22;11536;50.860;4.286;2023-02-22T05:10:58;6.80;99.90
22738;DHT22;11536;50.860;4.286;2023-02-22T05:13:24;6.80;99.90
22738;DHT22;11536;50.860;4.286;2023-02-22T05:15:50;6.70;99.90
22738;DHT22;11536;50.860;4.286;2023-02-22T05:18:16;6.70;99.90
22738;DHT22;11536;50.860;4.286;2023-02-22T05:20:41;6.70;99.90
22738;DHT22;11536;50.860;4.286;2023-02-22T05:23:07;6.70;99.90
22738;DHT22;11536;50.860;4.286;2023-02-22T05:25:33;6.70;99.90
22738;DHT22;11536;50.860;4.286;2023-02-22T05:28:01;6.70;99.90
22738;DHT22;11536;50.860;4.286;2023-02-22T05:30:30;6.70;99.90
22738;DHT22;11536;50.860;4.286;2023-02-22T05:32:57;6.70;99.90
22738;DHT22;11536;50.860;4.286;2023-02-22T05:35:24;6.70;99.90
22738;DHT22;11536;50.860;4.286;2023-02-22T05:37:50;6.70;99.90
22738;DHT22;11536;50.860;4.286;2023-02-22T05:40:21;6.70;99.90
22738;DHT22;11536;50.860;4.286;2023-02-22T05:42:47;6.70;99.90
22738;DHT22;11536;50.860;4.286;2023-02-22T05:45:14;6.70;99.90
22738;DHT22;11536;50.860;4.286;2023-02-22T05:47:40;6.80;99.90
22738;DHT22;11536;50.860;4.286;2023-02-22T05:50:06;6.80;99.90
22738;DHT22;11536;50.860;4.286;2023-02-22T05:52:32;6.70;99.90
22738;DHT22;11536;50.860;4.286;2023-02-22T05:54:58;6.80;99.90
22738;DHT22;11536;50.860;4.286;2023-02-22T05:57:23;6.70;99.90
22738;DHT22;11536;50.860;4.286;2023-02-22T05:59:49;6.70;99.90
22738;DHT22;11536;50.860;4.286;2023-02-22T06:02:15;6.70;99.90
22738;DHT22;11536;50.860;4.286;2023-02-22T06:04:44;6.70;99.90
22738;DHT22;11536;50.860;4.286;2023-02-22T06:07:09;6.70;99.90
22738;DHT22;11536;50.860;4.286;2023-02-22T06:09:35;6.70;99.90
22738;DHT22;11536;50.860;4.286;2023-02-22T06:12:00;6.70;99.90
22738;DHT22;11536;50.860;4.286;2023-02-22T06:14:26;6.70;99.90
22738;DHT22;11536;50.860;4.286;2023-02-22T06:16:53;6.80;99.90
22738;DHT22;11536;50.860;4.286;2023-02-22T06:19:19;6.70;99.90
22738;DHT22;11536;50.860;4.286;2023-02-22T06:21:53;6.80;99.90
22738;DHT22;11536;50.860;4.286;2023-02-22T06:24:19;6.80;99.90
22738;DHT22;11536;50.860;4.286;2023-02-22T06:26:45;6.70;99.90
22738;DHT22;11536;50.860;4.286;2023-02-22T06:29:11;6.80;99.90
22738;DHT22;11536;50.860;4.286;2023-02-22T06:31:37;6.70;99.90
22738;DHT22;11536;50.860;4.286;2023-02-22T06:34:03;6.70;99.90
22738;DHT22;11536;50.860;4.286;2023-02-22T06:36:29;6.70;99.90
22738;DHT22;11536;50.860;4.286;2023-02-22T06:38:56;6.70;99.90
22738;DHT22;11536;50.860;4.286;2023-02-22T06:41:21;6.60;99.90
22738;DHT22;11536;50.860;4.286;2023-02-22T06:43:47;6.70;99.90
22738;DHT22;11536;50.860;4.286;2023-02-22T06:46:13;6.60;99.90
22738;DHT22;11536;50.860;4.286;2023-02-22T06:48:39;6.60;99.90
22738;DHT22;11536;50.860;4.286;2023-02-22T06:51:08;6.60;99.90
22738;DHT22;11536;50.860;4.286;2023-02-22T06:53:34;6.70;99.90
22738;DHT22;11536;50.860;4.286;2023-02-22T06:55:59;6.70;99.90
22738;DHT22;11536;50.860;4.286;2023-02-22T06:58:26;6.60;99.90
22738;DHT22;11536;50.860;4.286;2023-02-22T07:00:52;6.60;99.90
22738;DHT22;11536;50.860;4.286;2023-02-22T07:03:18;6.60;99.90
22738;DHT22;11536;50.860;4.286;2023-02-22T07:05:43;6.60;99.90
22738;DHT22;11536;50.860;4.286;2023-02-22T07:08:09;6.60;99.90
22738;DHT22;11536;50.860;4.286;2023-02-22T07:10:36;6.60;99.90
22738;DHT22;11536;50.860;4.286;2023-02-22T07:13:03;6.60;99.90
22738;DHT22;11536;50.860;4.286;2023-02-22T07:15:30;6.70;99.90
22738;DHT22;11536;50.860;4.286;2023-02-22T07:17:57;6.60;99.90
22738;DHT22;11536;50.860;4.286;2023-02-22T07:20:24;6.70;99.90
22738;DHT22;11536;50.860;4.286;2023-02-22T07:22:50;6.70;99.90
22738;DHT22;11536;50.860;4.286;2023-02-22T07:25:17;6.70;99.90
22738;DHT22;11536;50.860;4.286;2023-02-22T07:27:43;6.70;99.90
22738;DHT22;11536;50.860;4.286;2023-02-22T07:30:21;6.70;99.90
22738;DHT22;11536;50.860;4.286;2023-02-22T07:32:51;6.70;99.90
22738;DHT22;11536;50.860;4.286;2023-02-22T07:35:28;6.80;99.90
22738;DHT22;11536;50.860;4.286;2023-02-22T07:37:55;6.80;99.90
22738;DHT22;11536;50.860;4.286;2023-02-22T07:40:21;6.80;99.90
22738;DHT22;11536;50.860;4.286;2023-02-22T07:43:01;6.90;99.90
22738;DHT22;11536;50.860;4.286;2023-02-22T07:45:33;6.90;99.90
22738;DHT22;11536;50.860;4.286;2023-02-22T07:48:01;6.90;99.90
22738;DHT22;11536;50.860;4.286;2023-02-22T07:50:28;7.00;99.90
22738;DHT22;11536;50.860;4.286;2023-02-22T07:52:57;7.00;99.90
22738;DHT22;11536;50.860;4.286;2023-02-22T07:55:25;7.00;99.90
22738;DHT22;11536;50.860;4.286;2023-02-22T07:57:53;7.00;99.90
22738;DHT22;11536;50.860;4.286;2023-02-22T08:00:27;7.10;99.90
22738;DHT22;11536;50.860;4.286;2023-02-22T08:02:54;7.10;99.90
22738;DHT22;11536;50.860;4.286;2023-02-22T08:05:23;7.10;99.90
22738;DHT22;11536;50.860;4.286;2023-02-22T08:07:49;7.20;99.90
22738;DHT22;11536;50.860;4.286;2023-02-22T08:12:42;7.30;99.90
22738;DHT22;11536;50.860;4.286;2023-02-22T08:15:14;7.30;99.90
22738;DHT22;11536;50.860;4.286;2023-02-22T08:17:40;7.30;99.90
22738;DHT22;11536;50.860;4.286;2023-02-22T08:20:06;7.30;99.90
22738;DHT22;11536;50.860;4.286;2023-02-22T08:22:32;7.40;99.90
22738;DHT22;11536;50.860;4.286;2023-02-22T08:24:57;7.40;99.90
22738;DHT22;11536;50.860;4.286;2023-02-22T08:27:24;7.50;99.90
22738;DHT22;11536;50.860;4.286;2023-02-22T08:29:50;7.50;99.90
22738;DHT22;11536;50.860;4.286;2023-02-22T08:32:16;7.50;99.90
22738;DHT22;11536;50.860;4.286;2023-02-22T08:34:42;7.50;99.90
22738;DHT22;11536;50.860;4.286;2023-02-22T08:37:09;7.60;99.90
22738;DHT22;11536;50.860;4.286;2023-02-22T08:39:35;7.60;99.90
22738;DHT22;11536;50.860;4.286;2023-02-22T08:42:00;7.70;99.90
22738;DHT22;11536;50.860;4.286;2023-02-22T08:44:26;7.80;99.90
22738;DHT22;11536;50.860;4.286;2023-02-22T08:46:51;7.80;99.90
22738;DHT22;11536;50.860;4.286;2023-02-22T08:49:17;7.90;99.90
22738;DHT22;11536;50.860;4.286;2023-02-22T08:51:44;7.90;99.90
22738;DHT22;11536;50.860;4.286;2023-02-22T08:54:10;8.00;99.90
22738;DHT22;11536;50.860;4.286;2023-02-22T08:56:35;7.90;99.90
22738;DHT22;11536;50.860;4.286;2023-02-22T08:59:01;7.90;99.90
22738;DHT22;11536;50.860;4.286;2023-02-22T09:01:27;8.00;99.90
22738;DHT22;11536;50.860;4.286;2023-02-22T09:03:53;8.00;99.90
22738;DHT22;11536;50.860;4.286;2023-02-22T09:06:21;8.10;99.90
22738;DHT22;11536;50.860;4.286;2023-02-22T09:08:47;8.10;99.90
22738;DHT22;11536;50.860;4.286;2023-02-22T09:11:12;8.10;99.90
22738;DHT22;11536;50.860;4.286;2023-02-22T09:13:38;8.20;99.90
22738;DHT22;11536;50.860;4.286;2023-02-22T09:16:05;8.20;99.90
22738;DHT22;11536;50.860;4.286;2023-02-22T09:18:30;8.20;99.90
22738;DHT22;11536;50.860;4.286;2023-02-22T09:20:57;8.30;99.90
22738;DHT22;11536;50.860;4.286;2023-02-22T09:23:23;8.30;99.90
22738;DHT22;11536;50.860;4.286;2023-02-22T09:25:50;8.40;99.90
22738;DHT22;11536;50.860;4.286;2023-02-22T09:28:16;8.40;99.90
22738;DHT22;11536;50.860;4.286;2023-02-22T09:30:42;8.50;99.90
22738;DHT22;11536;50.860;4.286;2023-02-22T09:33:09;8.50;99.90
22738;DHT22;11536;50.860;4.286;2023-02-22T09:35:40;8.60;99.90
22738;DHT22;11536;50.860;4.286;2023-02-22T09:38:17;8.60;99.90
22738;DHT22;11536;50.860;4.286;2023-02-22T09:40:51;8.70;99.90
22738;DHT22;11536;50.860;4.286;2023-02-22T09:49:14;8.80;99.90
22738;DHT22;11536;50.860;4.286;2023-02-22T09:51:47;8.80;99.90
22738;DHT22;11536;50.860;4.286;2023-02-22T09:54:34;8.90;99.90
22738;DHT22;11536;50.860;4.286;2023-02-22T09:57:06;8.90;99.90
22738;DHT22;11536;50.860;4.286;2023-02-22T09:59:40;9.00;99.90
22738;DHT22;11536;50.860;4.286;2023-02-22T10:02:18;9.10;99.90
22738;DHT22;11536;50.860;4.286;2023-02-22T10:04:54;9.10;99.90
22738;DHT22;11536;50.860;4.286;2023-02-22T10:07:28;9.20;99.90
22738;DHT22;11536;50.860;4.286;2023-02-22T10:09:56;9.30;99.90
22738;DHT22;11536;50.860;4.286;2023-02-22T10:12:28;9.30;99.90
22738;DHT22;11536;50.860;4.286;2023-02-22T10:18:50;9.40;99.90
22738;DHT22;11536;50.860;4.286;2023-02-22T10:23:34;9.60;99.90
22738;DHT22;11536;50.860;4.286;2023-02-22T10:26:17;9.70;99.90
22738;DHT22;11536;50.860;4.286;2023-02-22T10:31:30;9.80;99.90
22738;DHT22;11536;50.860;4.286;2023-02-22T10:34:01;9.90;99.90
22738;DHT22;11536;50.860;4.286;2023-02-22T10:36:26;9.90;99.90
22738;DHT22;11536;50.860;4.286;2023-02-22T10:39:28;10.00;99.90
22738;DHT22;11536;50.860;4.286;2023-02-22T10:41:57;10.10;99.90
22738;DHT22;11536;50.860;4.286;2023-02-22T10:44:33;10.10;99.90
22738;DHT22;11536;50.860;4.286;2023-02-22T10:47:01;10.20;99.90
22738;DHT22;11536;50.860;4.286;2023-02-22T10:49:34;10.30;99.90
22738;DHT22;11536;50.860;4.286;2023-02-22T10:52:02;10.40;99.90
22738;DHT22;11536;50.860;4.286;2023-02-22T10:54:36;10.40;99.90
22738;DHT22;11536;50.860;4.286;2023-02-22T10:57:03;10.40;99.90
22738;DHT22;11536;50.860;4.286;2023-02-22T10:59:34;10.40;99.90
22738;DHT22;11536;50.860;4.286;2023-02-22T11:02:08;10.50;99.90
22738;DHT22;11536;50.860;4.286;2023-02-22T11:04:55;10.50;99.90
22738;DHT22;11536;50.860;4.286;2023-02-22T11:07:32;10.50;99.90
22738;DHT22;11536;50.860;4.286;2023-02-22T11:10:05;10.60;99.90
22738;DHT22;11536;50.860;4.286;2023-02-22T11:12:41;10.70;99.90
22738;DHT22;11536;50.860;4.286;2023-02-22T11:17:43;10.80;99.90
22738;DHT22;11536;50.860;4.286;2023-02-22T11:20:24;10.80;99.90
22738;DHT22;11536;50.860;4.286;2023-02-22T11:22:59;10.80;99.90
22738;DHT22;11536;50.860;4.286;2023-02-22T11:25:31;10.80;99.90
22738;DHT22;11536;50.860;4.286;2023-02-22T11:28:25;10.90;99.90
22738;DHT22;11536;50.860;4.286;2023-02-22T11:30:56;10.90;99.90
22738;DHT22;11536;50.860;4.286;2023-02-22T11:33:24;10.90;99.90
22738;DHT22;11536;50.860;4.286;2023-02-22T11:36:01;10.90;99.90
22738;DHT22;11536;50.860;4.286;2023-02-22T11:38:32;11.00;99.90
22738;DHT22;11536;50.860;4.286;2023-02-22T11:41:20;11.00;99.90
22738;DHT22;11536;50.860;4.286;2023-02-22T11:43:51;11.00;99.90
22738;DHT22;11536;50.860;4.286;2023-02-22T11:46:26;11.10;99.90
22738;DHT22;11536;50.860;4.286;2023-02-22T11:49:00;11.10;99.90
22738;DHT22;11536;50.860;4.286;2023-02-22T11:56:48;11.30;99.90
22738;DHT22;11536;50.860;4.286;2023-02-22T11:59:40;11.20;99.90
22738;DHT22;11536;50.860;4.286;2023-02-22T12:12:53;11.40;99.90
22738;DHT22;11536;50.860;4.286;2023-02-22T12:18:11;11.40;99.90
22738;DHT22;11536;50.860;4.286;2023-02-22T12:20:45;11.40;99.90
22738;DHT22;11536;50.860;4.286;2023-02-22T12:23:35;11.40;99.90
22738;DHT22;11536;50.860;4.286;2023-02-22T12:26:09;11.40;99.90
22738;DHT22;11536;50.860;4.286;2023-02-22T12:31:45;11.40;99.90
22738;DHT22;11536;50.860;4.286;2023-02-22T12:43:12;11.50;99.90
22738;DHT22;11536;50.860;4.286;2023-02-22T12:45:51;11.50;99.90
22738;DHT22;11536;50.860;4.286;2023-02-22T12:51:55;11.50;99.90
22738;DHT22;11536;50.860;4.286;2023-02-22T12:54:36;11.50;99.90
22738;DHT22;11536;50.860;4.286;2023-02-22T12:57:07;11.60;99.90
22738;DHT22;11536;50.860;4.286;2023-02-22T12:59:52;11.60;99.90
22738;DHT22;11536;50.860;4.286;2023-02-22T13:02:39;11.60;99.90
22738;DHT22;11536;50.860;4.286;2023-02-22T13:05:16;11.60;99.90
22738;DHT22;11536;50.860;4.286;2023-02-22T13:10:29;11.70;99.90
22738;DHT22;11536;50.860;4.286;2023-02-22T13:16:07;11.70;99.90
22738;DHT22;11536;50.860;4.286;2023-02-22T13:24:01;11.70;99.90
22738;DHT22;11536;50.860;4.286;2023-02-22T13:29:20;11.70;99.90
22738;DHT22;11536;50.860;4.286;2023-02-22T13:53:22;11.50;99.90
22738;DHT22;11536;50.860;4.286;2023-02-22T13:55:54;11.50;99.90
22738;DHT22;11536;50.860;4.286;2023-02-22T13:58:24;11.50;99.90
22738;DHT22;11536;50.860;4.286;2023-02-22T14:00:58;11.50;99.90
22738;DHT22;11536;50.860;4.286;2023-02-22T14:05:58;11.50;99.90
22738;DHT22;11536;50.860;4.286;2023-02-22T14:10:56;11.60;99.90
22738;DHT22;11536;50.860;4.286;2023-02-22T14:21:19;11.50;99.90
22738;DHT22;11536;50.860;4.286;2023-02-22T14:23:50;11.50;99.90
22738;DHT22;11536;50.860;4.286;2023-02-22T14:26:23;11.50;99.90
22738;DHT22;11536;50.860;4.286;2023-02-22T14:29:02;11.50;99.90
22738;DHT22;11536;50.860;4.286;2023-02-22T14:34:19;11.40;99.90
22738;DHT22;11536;50.860;4.286;2023-02-22T14:37:15;11.40;99.90
22738;DHT22;11536;50.860;4.286;2023-02-22T14:39:45;11.40;99.90
22738;DHT22;11536;50.860;4.286;2023-02-22T14:47:49;11.30;99.90
22738;DHT22;11536;50.860;4.286;2023-02-22T14:50:22;11.30;99.90
22738;DHT22;11536;50.860;4.286;2023-02-22T14:53:37;11.30;99.90
22738;DHT22;11536;50.860;4.286;2023-02-22T14:56:24;11.20;99.90
22738;DHT22;11536;50.860;4.286;2023-02-22T15:01:38;11.20;99.90
22738;DHT22;11536;50.860;4.286;2023-02-22T15:04:39;11.20;99.90
22738;DHT22;11536;50.860;4.286;2023-02-22T15:07:23;11.20;99.90
22738;DHT22;11536;50.860;4.286;2023-02-22T15:10:03;11.20;99.90
22738;DHT22;11536;50.860;4.286;2023-02-22T15:12:29;11.20;99.90
22738;DHT22;11536;50.860;4.286;2023-02-22T15:15:19;11.10;99.90
22738;DHT22;11536;50.860;4.286;2023-02-22T15:17:53;11.10;99.90
22738;DHT22;11536;50.860;4.286;2023-02-22T15:20:20;11.10;99.90
22738;DHT22;11536;50.860;4.286;2023-02-22T15:22:48;11.10;99.90
22738;DHT22;11536;50.860;4.286;2023-02-22T15:25:14;11.10;99.90
22738;DHT22;11536;50.860;4.286;2023-02-22T15:27:43;11.00;99.90
22738;DHT22;11536;50.860;4.286;2023-02-22T15:30:24;11.00;99.90
22738;DHT22;11536;50.860;4.286;2023-02-22T15:32:51;11.00;99.90
22738;DHT22;11536;50.860;4.286;2023-02-22T15:35:27;11.00;99.90
22738;DHT22;11536;50.860;4.286;2023-02-22T15:38:01;11.00;99.90
22738;DHT22;11536;50.860;4.286;2023-02-22T15:40:27;10.90;99.90
22738;DHT22;11536;50.860;4.286;2023-02-22T15:43:02;10.90;99.90
22738;DHT22;11536;50.860;4.286;2023-02-22T15:45:29;10.90;99.90
22738;DHT22;11536;50.860;4.286;2023-02-22T15:47:56;10.80;99.90
22738;DHT22;11536;50.860;4.286;2023-02-22T15:50:24;10.80;99.90
22738;DHT22;11536;50.860;4.286;2023-02-22T15:58:19;10.70;99.90
22738;DHT22;11536;50.860;4.286;2023-02-22T16:01:02;10.70;99.90
22738;DHT22;11536;50.860;4.286;2023-02-22T16:03:38;10.70;99.90
22738;DHT22;11536;50.860;4.286;2023-02-22T16:06:23;10.70;99.90
22738;DHT22;11536;50.860;4.286;2023-02-22T16:08:53;10.70;99.90
22738;DHT22;11536;50.860;4.286;2023-02-22T16:11:31;10.70;99.90
22738;DHT22;11536;50.860;4.286;2023-02-22T16:14:03;10.60;99.90
22738;DHT22;11536;50.860;4.286;2023-02-22T16:16:32;10.70;99.90
22738;DHT22;11536;50.860;4.286;2023-02-22T16:19:36;10.60;99.90
22738;DHT22;11536;50.860;4.286;2023-02-22T16:22:05;10.60;99.90
22738;DHT22;11536;50.860;4.286;2023-02-22T16:24:38;10.60;99.90
22738;DHT22;11536;50.860;4.286;2023-02-22T16:29:39;10.60;99.90
22738;DHT22;11536;50.860;4.286;2023-02-22T16:32:05;10.70;99.90
22738;DHT22;11536;50.860;4.286;2023-02-22T16:34:31;10.70;99.90
22738;DHT22;11536;50.860;4.286;2023-02-22T16:36:57;10.60;99.90
22738;DHT22;11536;50.860;4.286;2023-02-22T16:39:25;10.60;99.90
22738;DHT22;11536;50.860;4.286;2023-02-22T16:41:59;10.60;99.90
22738;DHT22;11536;50.860;4.286;2023-02-22T16:44:25;10.60;99.90
22738;DHT22;11536;50.860;4.286;2023-02-22T16:46:52;10.60;99.90
22738;DHT22;11536;50.860;4.286;2023-02-22T16:49:18;10.70;99.90
22738;DHT22;11536;50.860;4.286;2023-02-22T16:51:54;10.60;99.90
22738;DHT22;11536;50.860;4.286;2023-02-22T16:54:34;10.60;99.90
22738;DHT22;11536;50.860;4.286;2023-02-22T16:57:02;10.60;99.90
22738;DHT22;11536;50.860;4.286;2023-02-22T16:59:31;10.60;99.90
22738;DHT22;11536;50.860;4.286;2023-02-22T17:01:57;10.60;99.90
22738;DHT22;11536;50.860;4.286;2023-02-22T17:04:24;10.60;99.90
22738;DHT22;11536;50.860;4.286;2023-02-22T17:06:51;10.60;99.90
22738;DHT22;11536;50.860;4.286;2023-02-22T17:09:17;10.60;99.90
22738;DHT22;11536;50.860;4.286;2023-02-22T17:11:48;10.60;99.90
22738;DHT22;11536;50.860;4.286;2023-02-22T17:14:19;10.60;99.90
22738;DHT22;11536;50.860;4.286;2023-02-22T17:16:48;10.70;99.90
22738;DHT22;11536;50.860;4.286;2023-02-22T17:19:16;10.60;99.90
22738;DHT22;11536;50.860;4.286;2023-02-22T17:21:42;10.60;99.90
22738;DHT22;11536;50.860;4.286;2023-02-22T17:24:11;10.60;99.90
22738;DHT22;11536;50.860;4.286;2023-02-22T17:26:37;10.60;99.90
22738;DHT22;11536;50.860;4.286;2023-02-22T17:29:02;10.60;99.90
22738;DHT22;11536;50.860;4.286;2023-02-22T17:31:29;10.60;99.90
22738;DHT22;11536;50.860;4.286;2023-02-22T17:34:00;10.60;99.90
22738;DHT22;11536;50.860;4.286;2023-02-22T17:36:30;10.60;99.90
22738;DHT22;11536;50.860;4.286;2023-02-22T17:38:56;10.60;99.90
22738;DHT22;11536;50.860;4.286;2023-02-22T17:41:22;10.60;99.90
22738;DHT22;11536;50.860;4.286;2023-02-22T17:43:47;10.60;99.90
22738;DHT22;11536;50.860;4.286;2023-02-22T17:46:13;10.60;99.90
22738;DHT22;11536;50.860;4.286;2023-02-22T17:48:39;10.60;99.90
22738;DHT22;11536;50.860;4.286;2023-02-22T17:51:06;10.60;99.90
22738;DHT22;11536;50.860;4.286;2023-02-22T17:53:33;10.60;99.90
22738;DHT22;11536;50.860;4.286;2023-02-22T17:56:04;10.60;99.90
22738;DHT22;11536;50.860;4.286;2023-02-22T17:58:30;10.60;99.90
22738;DHT22;11536;50.860;4.286;2023-02-22T18:00:56;10.60;99.90
22738;DHT22;11536;50.860;4.286;2023-02-22T18:03:24;10.60;99.90
22738;DHT22;11536;50.860;4.286;2023-02-22T18:05:53;10.60;99.90
22738;DHT22;11536;50.860;4.286;2023-02-22T18:08:19;10.50;99.90
22738;DHT22;11536;50.860;4.286;2023-02-22T18:10:45;10.50;99.90
22738;DHT22;11536;50.860;4.286;2023-02-22T18:13:16;10.50;99.90
22738;DHT22;11536;50.860;4.286;2023-02-22T18:15:44;10.50;99.90
22738;DHT22;11536;50.860;4.286;2023-02-22T18:18:10;10.60;99.90
22738;DHT22;11536;50.860;4.286;2023-02-22T18:20:36;10.50;99.90
22738;DHT22;11536;50.860;4.286;2023-02-22T18:23:05;10.50;99.90
22738;DHT22;11536;50.860;4.286;2023-02-22T18:25:33;10.50;99.90